Time;durP1;ratioP1;P1;durP2;ratioP2;P2;SDS_P1;SDS_P2;PMS_P1;PMS_P2;Temp;Humidity;BMP_temperature;BMP_pressure;BME280_temperature;BME280_humidity;BME280_pressure;Samples;Min_cycle;Max_cycle;Signal;HPM_P1;HPM_P2
2023/11/22 00:01:10;;;;;;;0.20;0.20;;;;;;;14.13;100.00;75332.69;6246257;23;20436;-94
2023/11/22 00:03:35;;;;;;;0.20;0.20;;;;;;;14.35;100.00;75366.16;6245919;22;20000;-94
2023/11/22 00:06:01;;;;;;;0.20;0.20;;;;;;;14.35;100.00;75357.81;6247199;22;20428;-95
2023/11/22 00:08:26;;;;;;;0.30;0.30;;;;;;;14.21;100.00;75346.63;6271550;22;20035;-95
2023/11/22 00:10:52;;;;;;;0.20;0.20;;;;;;;14.37;100.00;75366.38;6246629;22;20008;-95
2023/11/22 00:13:17;;;;;;;0.20;0.20;;;;;;;14.31;100.00;75353.03;6245798;23;20004;-96
2023/11/22 00:15:43;;;;;;;0.20;0.20;;;;;;;14.37;100.00;75360.81;6271466;22;20008;-95
2023/11/22 00:18:08;;;;;;;0.20;0.20;;;;;;;14.36;100.00;75359.03;6246179;23;20137;-95
2023/11/22 00:20:34;;;;;;;0.20;0.20;;;;;;;14.15;100.00;75337.84;6272319;22;20011;-96
2023/11/22 00:22:59;;;;;;;0.20;0.20;;;;;;;14.36;100.00;75364.59;6247031;23;20035;-95
2023/11/22 00:25:25;;;;;;;0.20;0.20;;;;;;;14.35;100.00;75357.81;6272172;22;20314;-95
2023/11/22 00:27:50;;;;;;;0.20;0.20;;;;;;;14.25;100.00;75348.63;6245834;22;20046;-95
2023/11/22 00:30:16;;;;;;;0.20;0.20;;;;;;;14.36;100.00;75364.59;6245992;22;20012;-95
2023/11/22 00:32:41;;;;;;;0.20;0.20;;;;;;;14.29;100.00;75356.22;6245378;23;20007;-95
2023/11/22 00:35:08;;;;;;;0.20;0.20;;;;;;;14.35;100.00;75360.59;6246714;23;20052;-95
2023/11/22 00:37:34;;;;;;;0.20;0.20;;;;;;;14.30;100.00;75357.41;6245487;22;20004;-95
2023/11/22 00:40:10;;;;;;;0.20;0.20;;;;;;;14.25;100.00;75354.19;6270717;22;20020;-95
2023/11/22 00:42:41;;;;;;;0.20;0.20;;;;;;;14.33;100.00;75361.00;6271274;22;20034;-95
2023/11/22 00:45:08;;;;;;;0.20;0.20;;;;;;;14.32;100.00;75362.56;6245839;23;20023;-95
2023/11/22 00:47:33;;;;;;;0.20;0.20;;;;;;;14.33;100.00;75358.22;6220256;23;20036;-95
2023/11/22 00:49:59;;;;;;;0.20;0.20;;;;;;;14.29;100.00;75350.66;6245722;22;20396;-95
2023/11/22 00:52:24;;;;;;;0.20;0.20;;;;;;;14.16;100.00;75335.66;6271268;22;20036;-94
2023/11/22 00:54:53;;;;;;;0.20;0.20;;;;;;;14.16;100.00;75336.25;6258164;22;20053;-93
2023/11/22 00:57:19;;;;;;;0.20;0.20;;;;;;;14.21;100.00;75343.84;6264426;22;20052;-94
2023/11/22 00:59:44;;;;;;;0.20;0.20;;;;;;;14.21;100.00;75347.22;6263227;22;20011;-94
2023/11/22 01:02:09;;;;;;;0.20;0.20;;;;;;;14.12;100.00;75334.25;6285678;22;20007;-95
2023/11/22 01:04:36;;;;;;;0.20;0.20;;;;;;;14.11;100.00;75329.66;6271955;22;19997;-96
2023/11/22 01:07:05;;;;;;;0.20;0.20;;;;;;;14.05;100.00;75323.09;6246819;22;20006;-94
2023/11/22 01:09:31;;;;;;;0.22;0.22;;;;;;;14.09;100.00;75332.84;6246380;22;20028;-95
2023/11/22 01:11:57;;;;;;;0.20;0.20;;;;;;;14.15;100.00;75337.84;6246967;23;20008;-95
2023/11/22 01:14:23;;;;;;;0.20;0.20;;;;;;;14.10;100.00;75331.25;6245824;22;20061;-93
2023/11/22 01:16:48;;;;;;;0.20;0.20;;;;;;;13.97;100.00;75319.06;6245673;23;20309;-93
2023/11/22 01:19:13;;;;;;;0.20;0.20;;;;;;;13.87;100.00;75307.09;6246709;22;20095;-93
2023/11/22 01:27:07;;;;;;;0.20;0.20;;;;;;;13.77;100.00;75292.34;6274774;22;20030;-91
2023/11/22 01:29:34;;;;;;;0.20;0.20;;;;;;;13.98;100.00;75314.13;6274956;22;20008;-93
2023/11/22 01:32:00;;;;;;;0.20;0.20;;;;;;;14.05;100.00;75323.09;6252315;22;20003;-95
2023/11/22 01:34:26;;;;;;;0.20;0.20;;;;;;;13.96;100.00;75315.09;6252570;22;20112;-94
2023/11/22 01:36:51;;;;;;;0.20;0.20;;;;;;;14.04;100.00;75324.66;6252952;22;20003;-93
2023/11/22 01:39:18;;;;;;;0.20;0.20;;;;;;;14.11;100.00;75335.22;6279050;22;19996;-94
2023/11/22 01:41:49;;;;;;;0.20;0.20;;;;;;;14.04;100.00;75324.66;6255222;22;20015;-95
2023/11/22 01:44:16;;;;;;;0.20;0.20;;;;;;;14.04;100.00;75319.13;6253595;22;20000;-92
2023/11/22 01:49:46;;;;;;;0.20;0.20;;;;;;;13.84;100.00;75301.31;6278089;22;20107;-91
2023/11/22 01:52:31;;;;;;;0.20;0.20;;;;;;;13.94;100.00;75315.47;6253119;22;20158;-93
2023/11/22 01:54:57;;;;;;;0.20;0.20;;;;;;;13.92;100.00;75307.53;6252744;22;20011;-93
2023/11/22 01:57:23;;;;;;;0.20;0.20;;;;;;;13.85;100.00;75293.59;6253400;22;20432;-95
2023/11/22 01:59:48;;;;;;;0.20;0.20;;;;;;;13.94;100.00;75314.88;6253683;22;20004;-94
2023/11/22 02:02:14;;;;;;;0.20;0.20;;;;;;;13.71;100.00;75288.53;6251670;22;20004;-92
2023/11/22 07:48:42;;;;;;;0.20;0.20;;;;;;;14.15;100.00;75332.28;6246715;22;20051;-92
2023/11/22 07:56:43;;;;;;;0.20;0.20;;;;;;;14.10;100.00;75331.84;6276358;22;20028;-94
2023/11/22 07:59:12;;;;;;;0.20;0.20;;;;;;;14.56;100.00;75387.97;6249533;22;20008;-95
2023/11/22 08:04:23;;;;;;;0.20;0.20;;;;;;;15.42;100.00;75483.66;6245877;22;20024;-96
2023/11/22 08:06:49;;;;;;;0.20;0.20;;;;;;;15.34;100.00;75476.84;6220167;23;20124;-95
2023/11/22 08:09:16;;;;;;;0.20;0.20;;;;;;;15.84;98.59;75535.63;6245378;23;20095;-96
2023/11/22 08:11:42;;;;;;;0.20;0.20;;;;;;;16.08;96.56;75558.81;6223928;23;20428;-96
2023/11/22 08:14:08;;;;;;;0.20;0.20;;;;;;;16.41;95.34;75600.00;6244888;23;20091;-95
2023/11/22 08:16:38;;;;;;;0.30;0.30;;;;;;;16.42;90.53;75601.19;6246314;22;20008;-96
2023/11/22 08:19:05;;;;;;;0.20;0.20;;;;;;;16.99;88.90;75673.94;6244934;23;20011;-95
2023/11/22 08:21:30;;;;;;;0.30;0.30;;;;;;;17.41;87.29;75718.16;6219872;23;20008;-96
2023/11/22 08:23:56;;;;;;;0.20;0.20;;;;;;;17.94;79.57;75780.00;6219412;23;20421;-96
2023/11/22 08:26:21;;;;;;;0.20;0.20;;;;;;;18.33;76.55;75820.66;6220308;23;20003;-95
2023/11/22 08:28:47;;;;;;;0.25;0.25;;;;;;;18.70;74.19;75869.50;6245892;23;20008;-96
2023/11/22 08:31:12;;;;;;;0.20;0.20;;;;;;;19.66;66.47;75982.47;6219577;23;20059;-96
2023/11/22 08:33:38;;;;;;;0.20;0.20;;;;;;;19.69;66.66;75983.84;6219503;23;20000;-95
2023/11/22 08:36:05;;;;;;;0.20;0.20;;;;;;;20.09;65.29;76025.72;6245993;23;20000;-93
2023/11/22 08:38:33;;;;;;;0.20;0.20;;;;;;;20.00;65.13;76023.34;6218584;23;20008;-94
2023/11/22 08:41:01;;;;;;;0.20;0.20;;;;;;;19.34;63.37;75945.19;6219625;23;20008;-93
2023/11/22 08:43:27;;;;;;;0.20;0.20;;;;;;;19.51;63.48;75965.03;6220211;23;20083;-94
2023/11/22 08:45:52;;;;;;;0.20;0.20;;;;;;;18.77;63.28;75877.91;6219590;23;20011;-93
2023/11/22 08:48:18;;;;;;;0.20;0.20;;;;;;;18.99;62.59;75904.34;6219793;23;20008;-93
2023/11/22 08:50:48;;;;;;;0.20;0.20;;;;;;;18.30;64.62;75823.25;6219214;23;20001;-93
2023/11/22 08:53:13;;;;;;;0.20;0.20;;;;;;;17.61;68.82;75741.56;6219154;23;20047;-95
2023/11/22 08:55:39;;;;;;;0.20;0.20;;;;;;;17.05;73.13;75675.59;6245775;23;20388;-94
2023/11/22 08:58:05;;;;;;;0.20;0.20;;;;;;;16.90;75.98;75663.78;6245712;23;20000;-96
2023/11/22 09:00:32;;;;;;;0.20;0.20;;;;;;;16.65;77.23;75628.75;6219045;23;20397;-95
2023/11/22 09:02:57;;;;;;;0.20;0.20;;;;;;;16.70;79.43;75634.75;6218895;23;20008;-96
2023/11/22 09:05:23;;;;;;;0.20;0.20;;;;;;;16.61;80.72;75628.94;6218455;23;20011;-95
2023/11/22 09:07:48;;;;;;;0.20;0.20;;;;;;;17.11;80.44;75684.97;6218874;23;20008;-96
2023/11/22 09:10:14;;;;;;;0.20;0.20;;;;;;;17.68;77.85;75752.16;6219131;23;20015;-94
2023/11/22 09:12:41;;;;;;;0.20;0.20;;;;;;;18.22;75.84;75810.84;6219362;23;20000;-95
2023/11/22 09:15:12;;;;;;;0.20;0.20;;;;;;;18.33;74.87;75832.44;6219355;23;19997;-95
2023/11/22 09:17:42;;;;;;;0.20;0.20;;;;;;;18.79;71.02;75877.50;6219332;23;20000;-94
2023/11/22 09:20:12;;;;;;;0.20;0.20;;;;;;;19.39;65.60;75954.00;6245756;23;20011;-93
2023/11/22 09:22:47;;;;;;;0.20;0.20;;;;;;;19.49;65.23;75957.59;6221464;23;20010;-92
2023/11/22 09:25:22;;;;;;;0.20;0.20;;;;;;;20.00;60.35;76022.72;6219594;23;20492;-94
2023/11/22 09:27:51;;;;;;;0.20;0.20;;;;;;;19.84;61.64;76004.69;6220790;23;20004;-94
2023/11/22 09:30:32;;;;;;;0.20;0.20;;;;;;;20.30;60.72;76058.19;6220458;23;20005;-93
2023/11/22 09:33:11;;;;;;;0.20;0.20;;;;;;;20.12;59.47;76037.16;6214467;23;20420;-92
2023/11/22 09:35:37;;;;;;;0.20;0.20;;;;;;;20.42;60.79;76073.22;6250045;23;20004;-93
2023/11/22 09:38:09;;;;;;;0.20;0.20;;;;;;;20.29;58.43;76057.59;6229256;23;20005;-93
2023/11/22 09:40:35;;;;;;;0.20;0.20;;;;;;;20.35;57.55;76067.63;6261371;23;20008;-92
2023/11/22 09:43:02;;;;;;;0.20;0.20;;;;;;;20.15;57.25;76044.16;6239093;23;20004;-93
2023/11/22 09:45:31;;;;;;;0.20;0.20;;;;;;;19.78;59.52;75997.50;6230634;23;20000;-94
2023/11/22 09:47:57;;;;;;;0.20;0.20;;;;;;;19.76;59.89;75992.28;6221788;23;20118;-94
2023/11/22 09:50:32;;;;;;;0.20;0.20;;;;;;;19.39;60.82;75948.41;6225403;23;20004;-96
2023/11/22 09:53:02;;;;;;;0.20;0.20;;;;;;;19.83;55.99;76000.09;6225159;23;20004;-95
2023/11/22 09:55:31;;;;;;;0.20;0.20;;;;;;;19.85;56.08;76003.09;6249019;23;20008;-95
2023/11/22 09:57:59;;;;;;;0.20;0.20;;;;;;;19.86;57.35;76004.28;6221701;23;20420;-95
2023/11/22 10:00:28;;;;;;;0.20;0.20;;;;;;;19.97;58.64;76014.09;6222030;23;20086;-94
2023/11/22 10:02:53;;;;;;;0.20;0.20;;;;;;;20.25;60.12;76052.19;6222470;23;20440;-95
2023/11/22 10:05:20;;;;;;;0.20;0.20;;;;;;;20.59;50.97;76086.88;6222881;23;20332;-95
2023/11/22 10:07:47;;;;;;;0.20;0.20;;;;;;;20.19;48.78;76039.97;6248183;23;20000;-95
2023/11/22 10:10:14;;;;;;;0.20;0.20;;;;;;;20.39;50.89;76072.41;6222327;23;20247;-94
2023/11/22 10:12:42;;;;;;;0.20;0.20;;;;;;;20.82;49.42;76117.31;6221372;23;20481;-94
2023/11/22 10:15:16;;;;;;;0.20;0.20;;;;;;;20.70;49.35;76105.72;6220838;23;20079;-94
2023/11/22 10:17:58;;;;;;;0.20;0.20;;;;;;;20.55;50.74;76085.47;6220890;23;20015;-93
2023/11/22 10:20:46;;;;;;;0.20;0.20;;;;;;;20.54;47.42;76087.06;6247533;23;20004;-95
2023/11/22 10:23:16;;;;;;;0.20;0.20;;;;;;;20.49;47.94;76075.44;6221066;23;20016;-94
2023/11/22 10:25:47;;;;;;;0.20;0.20;;;;;;;20.17;47.80;76042.56;6221441;23;20011;-94
2023/11/22 10:28:13;;;;;;;0.20;0.20;;;;;;;19.79;49.09;75998.69;6222544;23;20003;-96
2023/11/22 10:30:40;;;;;;;0.20;0.20;;;;;;;20.08;48.53;76029.53;6199374;23;20024;-94
2023/11/22 10:33:13;;;;;;;0.20;0.20;;;;;;;21.04;45.16;76143.19;6226500;23;20015;-94
2023/11/22 10:35:45;;;;;;;0.20;0.20;;;;;;;20.93;45.83;76127.75;6225649;23;20008;-94
2023/11/22 10:38:15;;;;;;;0.20;0.20;;;;;;;21.46;44.87;76189.72;6250444;23;20000;-93
2023/11/22 10:40:41;;;;;;;0.20;0.20;;;;;;;21.77;43.82;76223.59;6215444;23;20012;-93
2023/11/22 10:43:10;;;;;;;0.20;0.20;;;;;;;21.71;43.65;76219.19;6222382;23;20085;-93
2023/11/22 10:45:37;;;;;;;0.20;0.20;;;;;;;21.21;44.71;76165.84;6221272;23;20317;-93
2023/11/22 10:48:03;;;;;;;0.20;0.20;;;;;;;21.23;43.91;76168.25;6220264;23;20004;-94
2023/11/22 10:50:28;;;;;;;0.20;0.20;;;;;;;21.37;45.34;76184.53;6219499;23;20008;-95
2023/11/22 10:52:57;;;;;;;0.20;0.20;;;;;;;21.30;44.29;76170.47;6219678;23;20066;-93
2023/11/22 10:55:26;;;;;;;0.20;0.20;;;;;;;21.25;42.92;76172.88;6220276;23;20417;-93
2023/11/22 10:57:56;;;;;;;0.20;0.20;;;;;;;20.87;42.11;76123.34;6219837;23;20090;-94
2023/11/22 11:00:26;;;;;;;0.20;0.20;;;;;;;20.61;42.50;76089.25;6220614;23;20019;-94
2023/11/22 11:02:58;;;;;;;0.20;0.20;;;;;;;20.59;42.93;76090.28;6220631;23;20351;-95
2023/11/22 11:05:31;;;;;;;0.20;0.20;;;;;;;20.95;42.17;76135.19;6221150;23;20008;-93
2023/11/22 11:08:12;;;;;;;0.20;0.20;;;;;;;21.36;43.63;76178.31;6219830;23;20048;-93
2023/11/22 11:10:42;;;;;;;0.20;0.20;;;;;;;21.48;42.27;76197.75;6220923;23;20032;-92
2023/11/22 11:13:11;;;;;;;0.20;0.20;;;;;;;21.24;43.42;76169.44;6220728;23;20299;-93
2023/11/22 11:15:39;;;;;;;0.20;0.20;;;;;;;21.11;42.57;76153.81;6221595;23;20020;-92
2023/11/22 11:18:07;;;;;;;0.20;0.20;;;;;;;20.91;43.11;76128.16;6248966;22;20088;-94
2023/11/22 11:20:46;;;;;;;0.20;0.20;;;;;;;21.25;42.34;76165.03;6227624;23;20008;-92
2023/11/22 11:23:14;;;;;;;0.20;0.20;;;;;;;20.51;43.17;76077.25;6220179;23;20011;-95
2023/11/22 11:25:39;;;;;;;0.20;0.20;;;;;;;20.39;43.76;76066.19;6219842;23;20011;-94
2023/11/22 11:28:05;;;;;;;0.20;0.20;;;;;;;20.50;42.51;76081.66;6219885;23;20429;-94
2023/11/22 11:30:48;;;;;;;0.20;0.20;;;;;;;20.53;42.94;76079.66;6247223;23;20004;-94
2023/11/22 11:33:34;;;;;;;0.20;0.20;;;;;;;20.65;44.16;76100.28;6220796;23;20087;-92
2023/11/22 11:36:03;;;;;;;0.20;0.20;;;;;;;20.18;44.88;76038.75;6201162;22;20016;-95
2023/11/22 11:38:36;;;;;;;0.20;0.20;;;;;;;20.94;45.39;76128.34;6254179;23;20015;-95
2023/11/22 11:41:09;;;;;;;;;;;;;;;21.29;43.99;76172.66;6203840;23;20012;-96
2023/11/22 11:43:45;;;;;;;0.20;0.20;;;;;;;21.51;42.54;76200.75;6253507;23;19918;-95
2023/11/22 11:46:12;;;;;;;0.20;0.20;;;;;;;20.84;42.72;76116.34;6261605;23;20028;-96
2023/11/22 11:48:37;;;;;;;0.20;0.20;;;;;;;20.70;43.37;76108.53;6268155;23;20004;-96
2023/11/22 11:51:03;;;;;;;0.20;0.20;;;;;;;20.76;43.25;76106.69;6241800;23;20063;-96
2023/11/22 11:53:31;;;;;;;0.20;0.20;;;;;;;20.21;44.66;76047.97;6242406;23;20008;-96
2023/11/22 11:55:57;;;;;;;0.20;0.20;;;;;;;20.42;44.66;76067.59;6240575;23;20004;-96
2023/11/22 11:58:23;;;;;;;0.20;0.20;;;;;;;20.82;44.63;76120.13;6265255;23;20005;-96
2023/11/22 12:00:52;;;;;;;0.20;0.20;;;;;;;20.68;44.39;76103.31;6264889;23;20043;-96
2023/11/22 12:03:20;;;;;;;0.20;0.20;;;;;;;20.67;44.33;76097.09;6269945;23;20333;-96
2023/11/22 12:05:47;;;;;;;0.20;0.20;;;;;;;19.96;45.10;76010.09;6242588;23;20019;-96
2023/11/22 12:08:16;;;;;;;0.20;0.20;;;;;;;19.63;46.03;75979.47;6270712;23;20044;-96
2023/11/22 12:23:38;;;;;;;0.20;0.20;;;;;;;19.57;48.01;75975.03;6222176;22;20036;-94
2023/11/22 12:26:04;;;;;;;0.20;0.20;;;;;;;19.25;47.66;75928.78;6244125;23;20250;-96
2023/11/22 12:28:32;;;;;;;0.20;0.20;;;;;;;19.47;48.23;75957.41;6243679;23;20488;-95
2023/11/22 12:31:13;;;;;;;0.20;0.20;;;;;;;20.00;46.98;76022.72;6244259;23;20031;-93
2023/11/22 12:33:41;;;;;;;0.20;0.20;;;;;;;20.04;46.88;76027.53;6244395;23;20008;-94
2023/11/22 12:36:09;;;;;;;0.20;0.20;;;;;;;20.55;45.94;76082.06;6221513;23;20011;-93
2023/11/22 12:38:35;;;;;;;0.20;0.20;;;;;;;19.84;46.25;75999.09;6218813;23;20008;-94
2023/11/22 12:41:03;;;;;;;0.20;0.20;;;;;;;19.58;46.10;75974.03;6244291;23;20437;-93
2023/11/22 12:43:29;;;;;;;0.20;0.20;;;;;;;19.77;46.38;75993.47;6219206;23;20093;-93
2023/11/22 12:46:07;;;;;;;0.20;0.20;;;;;;;20.00;46.09;76020.53;6243731;23;20000;-93
2023/11/22 12:48:35;;;;;;;0.20;0.20;;;;;;;19.75;45.84;75993.28;6218615;23;20508;-94
2023/11/22 12:51:01;;;;;;;0.20;0.20;;;;;;;19.44;46.21;75957.22;6245350;23;20007;-93
2023/11/22 12:53:30;;;;;;;0.20;0.20;;;;;;;19.61;47.08;75974.25;6218695;23;20004;-95
2023/11/22 12:55:56;;;;;;;0.20;0.20;;;;;;;19.72;47.38;75987.47;6245504;23;20000;-94
2023/11/22 12:58:25;;;;;;;0.20;0.20;;;;;;;19.50;44.59;75958.22;6244746;23;20368;-94
2023/11/22 13:00:57;;;;;;;0.20;0.20;;;;;;;19.79;44.50;75995.88;6245003;23;20031;-95
2023/11/22 13:03:25;;;;;;;;;;;;;;;19.81;45.70;75998.28;6245783;23;20020;-93
2023/11/22 13:05:54;;;;;;;0.20;0.20;;;;;;;20.04;45.00;76021.94;6218541;23;19914;-94
2023/11/22 13:08:21;;;;;;;0.20;0.20;;;;;;;19.83;46.15;75997.88;6219711;23;20032;-94
2023/11/22 13:10:53;;;;;;;0.20;0.20;;;;;;;19.99;45.43;76021.53;6218887;23;20012;-93
2023/11/22 13:13:23;;;;;;;0.20;0.20;;;;;;;19.34;46.70;75940.19;6218791;23;20432;-94
2023/11/22 13:15:49;;;;;;;0.20;0.20;;;;;;;19.22;46.00;75931.38;6244472;22;20000;-94
2023/11/22 13:18:16;;;;;;;0.20;0.20;;;;;;;19.62;44.72;75972.66;6218632;23;20031;-95
2023/11/22 13:20:42;;;;;;;0.20;0.20;;;;;;;19.30;45.67;75935.38;6222558;23;20031;-96
2023/11/22 13:23:08;;;;;;;0.20;0.20;;;;;;;19.46;44.90;75959.00;6216058;23;20016;-93
2023/11/22 13:25:34;;;;;;;0.20;0.20;;;;;;;19.20;46.24;75925.56;6241370;23;20352;-94
2023/11/22 13:27:59;;;;;;;0.20;0.20;;;;;;;19.21;45.92;75924.56;6218206;23;20004;-94
2023/11/22 13:30:25;;;;;;;0.20;0.20;;;;;;;18.69;46.29;75862.69;6219305;23;20432;-94
2023/11/22 13:32:57;;;;;;;0.20;0.20;;;;;;;18.71;46.59;75865.09;6218850;23;20004;-95
2023/11/22 13:38:13;;;;;;;0.20;0.20;;;;;;;18.70;46.92;75867.31;6235441;22;20028;-93
2023/11/22 13:40:40;;;;;;;0.20;0.20;;;;;;;18.46;47.29;75839.06;6248034;22;20008;-94
2023/11/22 13:58:09;;;;;;;0.20;0.20;;;;;;;18.03;51.81;75791.41;6230113;23;20521;-94
2023/11/22 14:17:20;;;;;;;0.20;0.20;;;;;;;17.34;60.00;75706.38;6243888;22;20038;-93
2023/11/22 14:22:57;;;;;;;0.20;0.20;;;;;;;17.09;62.43;75683.16;6273520;22;20059;-96
2023/11/22 14:25:22;;;;;;;0.20;0.20;;;;;;;17.25;62.83;75701.75;6275615;22;20035;-95
2023/11/22 14:27:52;;;;;;;0.20;0.20;;;;;;;17.23;63.85;75697.19;6276001;22;20051;-95
2023/11/22 14:30:17;;;;;;;0.20;0.20;;;;;;;17.22;63.92;75695.97;6250464;22;20011;-96
2023/11/22 14:32:43;;;;;;;0.20;0.20;;;;;;;16.65;65.34;75625.97;6250644;22;20251;-95
2023/11/22 14:35:09;;;;;;;0.20;0.20;;;;;;;17.16;65.25;75688.78;6277486;22;20007;-92
2023/11/22 14:37:37;;;;;;;0.20;0.20;;;;;;;17.14;65.55;75689.16;6276378;22;20003;-92
2023/11/22 14:40:04;;;;;;;0.20;0.20;;;;;;;17.17;66.29;75684.38;6250177;22;20007;-93
2023/11/22 14:42:31;;;;;;;0.20;0.20;;;;;;;17.01;65.75;75676.38;6275843;22;20007;-93
2023/11/22 14:44:56;;;;;;;0.20;0.20;;;;;;;17.18;66.91;75693.97;6278209;22;20489;-93
2023/11/22 14:47:26;;;;;;;0.20;0.20;;;;;;;17.31;67.16;75706.19;6250362;22;20078;-92
2023/11/22 14:49:52;;;;;;;0.20;0.20;;;;;;;17.29;67.74;75704.38;6250993;22;19995;-93
2023/11/22 14:52:19;;;;;;;0.20;0.20;;;;;;;17.17;68.51;75689.97;6275832;22;20034;-93
2023/11/22 14:54:45;;;;;;;0.20;0.20;;;;;;;17.22;69.09;75695.38;6250027;22;20008;-92
2023/11/22 14:57:12;;;;;;;0.20;0.20;;;;;;;17.17;70.24;75687.19;6250159;22;20374;-92
2023/11/22 14:59:41;;;;;;;0.20;0.20;;;;;;;17.12;71.01;75683.97;6249602;22;20016;-93
2023/11/22 15:02:09;;;;;;;0.20;0.20;;;;;;;16.97;71.54;75663.19;6276788;22;20004;-92
2023/11/22 15:04:36;;;;;;;0.20;0.20;;;;;;;16.96;73.18;75665.38;6275228;22;20003;-94
2023/11/22 15:07:02;;;;;;;0.20;0.20;;;;;;;16.90;74.27;75654.78;6271632;22;19999;-92
2023/11/22 15:09:28;;;;;;;0.20;0.20;;;;;;;16.73;76.74;75635.00;6271594;22;20074;-92
2023/11/22 15:11:54;;;;;;;0.20;0.20;;;;;;;16.55;78.42;75619.56;6246238;22;20427;-91
2023/11/22 15:14:22;;;;;;;0.20;0.20;;;;;;;16.39;80.97;75600.38;6274962;22;20340;-93
2023/11/22 15:16:47;;;;;;;0.20;0.20;;;;;;;16.10;83.23;75563.41;6245919;22;20021;-91
2023/11/22 15:19:13;;;;;;;0.20;0.20;;;;;;;16.18;84.20;75573.00;6245212;22;20440;-92
2023/11/22 15:21:38;;;;;;;0.20;0.20;;;;;;;16.08;85.47;75561.00;6272647;22;20027;-91
2023/11/22 15:24:04;;;;;;;0.20;0.20;;;;;;;15.83;86.86;75532.22;6245890;22;20053;-92
2023/11/22 15:26:29;;;;;;;0.20;0.20;;;;;;;15.76;87.57;75523.22;6272768;22;20078;-93
2023/11/22 15:28:55;;;;;;;0.20;0.20;;;;;;;15.76;88.42;75523.22;6273215;22;20004;-93
2023/11/22 15:31:22;;;;;;;0.20;0.20;;;;;;;15.52;89.50;75498.44;6244814;22;20095;-92
2023/11/22 15:33:48;;;;;;;0.20;0.20;;;;;;;15.56;90.65;75506.00;6245998;22;20014;-92
2023/11/22 15:36:16;;;;;;;0.20;0.20;;;;;;;15.33;91.18;75478.44;6272556;22;20004;-95
2023/11/22 15:38:42;;;;;;;0.20;0.20;;;;;;;15.29;91.90;75470.88;6245360;22;20008;-94
2023/11/22 15:41:07;;;;;;;0.20;0.20;;;;;;;15.33;91.99;75476.25;6246182;22;20089;-94
2023/11/22 15:43:36;;;;;;;0.20;0.20;;;;;;;15.29;92.13;75468.69;6245775;22;20031;-96
2023/11/22 15:46:02;;;;;;;0.20;0.20;;;;;;;15.08;92.61;75443.50;6245988;22;20084;-94
2023/11/22 15:48:28;;;;;;;0.25;0.25;;;;;;;15.18;92.38;75452.72;6245943;22;20016;-94
2023/11/22 15:50:54;;;;;;;0.20;0.20;;;;;;;15.17;92.22;75457.66;6245660;22;20007;-94
2023/11/22 15:53:19;;;;;;;0.20;0.20;;;;;;;15.12;88.30;75448.88;6245228;22;20011;-94
2023/11/22 15:55:44;;;;;;;0.20;0.20;;;;;;;15.20;87.60;75455.69;6245751;22;20027;-95
2023/11/22 15:58:11;;;;;;;0.20;0.20;;;;;;;15.35;83.27;75478.66;6273296;22;20008;-96
2023/11/22 16:08:47;;;;;;;0.20;0.20;;;;;;;15.38;84.09;75478.84;6270557;22;19953;-96
2023/11/22 16:11:12;;;;;;;0.20;0.20;;;;;;;15.34;83.79;75474.06;6220187;22;20321;-96
2023/11/22 16:53:15;;;;;;;0.20;0.20;;;;;;;14.69;84.80;75395.19;6249839;22;20075;-96
2023/11/22 16:55:43;;;;;;;0.20;0.20;;;;;;;14.90;85.34;75425.31;6225846;23;20035;-96
2023/11/22 16:58:08;;;;;;;0.20;0.20;;;;;;;14.92;86.47;75425.53;6229253;23;20340;-96
2023/11/22 17:00:34;;;;;;;0.20;0.20;;;;;;;14.62;84.71;75392.97;6221930;23;20127;-96
2023/11/22 17:03:00;;;;;;;0.20;0.20;;;;;;;14.87;82.03;75419.53;6251096;22;20017;-96
2023/11/22 17:05:31;;;;;;;0.20;0.20;;;;;;;15.04;78.98;75441.50;6247843;22;20099;-96
2023/11/22 17:08:00;;;;;;;0.20;0.20;;;;;;;15.05;79.13;75446.06;6249650;22;20336;-96
2023/11/22 17:18:23;;;;;;;0.20;0.20;;;;;;;14.79;81.60;75414.91;6274778;22;20078;-95
2023/11/22 17:26:44;;;;;;;0.20;0.20;;;;;;;14.48;80.57;75367.84;6273055;22;20028;-92
2023/11/22 17:29:10;;;;;;;0.20;0.20;;;;;;;14.72;82.23;75400.97;6244798;22;20022;-95
2023/11/22 17:31:36;;;;;;;0.20;0.20;;;;;;;14.69;82.17;75400.75;6245657;22;20414;-96
2023/11/22 17:34:01;;;;;;;0.20;0.20;;;;;;;14.55;81.08;75381.22;6245511;22;19999;-96
2023/11/22 17:36:27;;;;;;;0.20;0.20;;;;;;;14.54;80.74;75380.00;6244951;22;20439;-95
2023/11/22 17:38:52;;;;;;;0.20;0.20;;;;;;;14.65;80.73;75393.19;6244498;22;20011;-96
2023/11/22 17:41:18;;;;;;;0.20;0.20;;;;;;;14.56;80.09;75382.41;6244966;22;20018;-95
2023/11/22 17:43:44;;;;;;;0.22;0.22;;;;;;;14.67;80.34;75392.81;6252216;22;20011;-95
2023/11/22 17:49:15;;;;;;;0.30;0.30;;;;;;;14.62;80.01;75392.38;6270994;22;20049;-95
2023/11/22 17:52:01;;;;;;;0.20;0.20;;;;;;;14.63;77.36;75391.38;6245832;22;20452;-94
2023/11/22 20:14:40;;;;;;;0.20;0.20;;;;;;;13.98;72.16;75314.72;6245723;22;20465;-91
